Time;durP1;ratioP1;P1;durP2;ratioP2;P2;SDS_P1;SDS_P2;PMS_P1;PMS_P2;Temp;Humidity;BMP_temperature;BMP_pressure;BME280_temperature;BME280_humidity;BME280_pressure;Samples;Min_cycle;Max_cycle;Signal;HPM_P1;HPM_P2
2020/01/22 00:01:22;;;;;;;5.26;4.76;;;;;;;19.24;37.61;102631.62;;;;-48
2020/01/22 00:04:22;;;;;;;5.13;4.64;;;;;;;19.22;37.59;102621.05;;;;-48
2020/01/22 00:07:22;;;;;;;5.19;4.69;;;;;;;19.21;37.60;102612.53;;;;-48
2020/01/22 00:10:23;;;;;;;5.25;4.77;;;;;;;19.19;37.61;102604.45;;;;-48
2020/01/22 00:13:22;;;;;;;5.57;5.05;;;;;;;19.18;37.63;102600.59;;;;-48
2020/01/22 00:16:22;;;;;;;5.23;4.73;;;;;;;19.17;37.58;102600.20;;;;-48
2020/01/22 00:19:22;;;;;;;5.49;4.99;;;;;;;19.16;37.62;102593.98;;;;-48
2020/01/22 00:22:22;;;;;;;5.33;4.82;;;;;;;19.14;37.63;102594.33;;;;-48
2020/01/22 00:25:22;;;;;;;5.29;4.79;;;;;;;19.12;37.61;102592.02;;;;-49
2020/01/22 00:30:22;;;;;;;5.05;4.55;;;;;;;19.10;37.55;102597.53;;;;-48
2020/01/22 00:33:22;;;;;;;5.29;4.79;;;;;;;19.08;37.63;102599.79;;;;-48
2020/01/22 00:36:22;;;;;;;5.02;4.57;;;;;;;19.07;37.62;102599.70;;;;-48
2020/01/22 00:40:22;;;;;;;5.22;4.77;;;;;;;19.06;37.63;102596.53;;;;-48
2020/01/22 00:43:22;;;;;;;5.22;4.72;;;;;;;19.04;37.66;102594.00;;;;-48
2020/01/22 00:48:23;;;;;;;5.13;4.65;;;;;;;19.02;37.63;102586.28;;;;-48
2020/01/22 00:51:23;;;;;;;5.36;4.86;;;;;;;19.01;37.64;102583.41;;;;-48
2020/01/22 00:54:23;;;;;;;5.44;4.94;;;;;;;18.99;37.56;102584.89;;;;-48
2020/01/22 00:57:23;;;;;;;5.13;4.63;;;;;;;18.98;37.63;102583.69;;;;-48
2020/01/22 01:00:23;;;;;;;5.43;4.93;;;;;;;18.96;37.64;102586.48;;;;-48
2020/01/22 01:03:22;;;;;;;5.32;4.86;;;;;;;18.96;37.61;102582.95;;;;-48
2020/01/22 01:06:44;;;;;;;5.50;5.00;;;;;;;18.95;37.60;102573.72;;;;-48
2020/01/22 01:09:25;;;;;;;5.43;4.93;;;;;;;18.93;37.64;102570.59;;;;-48
2020/01/22 01:12:43;;;;;;;5.24;4.74;;;;;;;18.92;37.57;102563.54;;;;-48
2020/01/22 01:15:23;;;;;;;5.23;4.73;;;;;;;18.91;37.66;102559.50;;;;-48
2020/01/22 01:18:22;;;;;;;5.39;4.88;;;;;;;18.90;37.59;102560.87;;;;-48
2020/01/22 01:21:23;;;;;;;5.51;5.01;;;;;;;18.88;37.69;102566.42;;;;-48
2020/01/22 01:24:23;;;;;;;5.35;4.85;;;;;;;18.87;37.67;102562.08;;;;-48
2020/01/22 01:27:23;;;;;;;5.51;5.01;;;;;;;18.86;37.67;102568.81;;;;-48
2020/01/22 01:30:23;;;;;;;5.39;4.89;;;;;;;18.84;37.62;102561.78;;;;-48
2020/01/22 01:33:23;;;;;;;5.39;4.89;;;;;;;18.83;37.61;102554.00;;;;-48
2020/01/22 01:36:23;;;;;;;5.33;4.83;;;;;;;18.82;37.57;102551.41;;;;-48
2020/01/22 01:39:22;;;;;;;5.46;4.96;;;;;;;18.82;37.54;102560.45;;;;-54
2020/01/22 01:42:22;;;;;;;5.62;5.12;;;;;;;18.81;37.64;102554.00;;;;-54
2020/01/22 01:45:23;;;;;;;5.39;4.89;;;;;;;18.80;37.63;102544.25;;;;-54
2020/01/22 01:48:22;;;;;;;5.39;4.89;;;;;;;18.77;37.63;102539.63;;;;-54
2020/01/22 01:51:23;;;;;;;5.41;4.91;;;;;;;18.77;37.61;102537.81;;;;-54
2020/01/22 01:54:23;;;;;;;5.29;4.79;;;;;;;18.76;37.60;102538.81;;;;-54
2020/01/22 01:57:23;;;;;;;5.39;4.89;;;;;;;18.75;37.62;102538.83;;;;-54
2020/01/22 02:00:22;;;;;;;5.45;4.95;;;;;;;18.74;37.63;102535.73;;;;-54
2020/01/22 02:03:22;;;;;;;5.40;4.88;;;;;;;18.73;37.59;102542.67;;;;-54
2020/01/22 02:06:22;;;;;;;5.31;4.81;;;;;;;18.72;37.62;102542.84;;;;-54
2020/01/22 02:09:23;;;;;;;5.68;5.18;;;;;;;18.71;37.63;102541.53;;;;-54
2020/01/22 02:12:23;;;;;;;5.63;5.13;;;;;;;18.70;37.71;102539.70;;;;-54
2020/01/22 02:15:23;;;;;;;5.82;5.28;;;;;;;18.70;37.62;102530.89;;;;-54
2020/01/22 02:18:22;;;;;;;5.29;4.79;;;;;;;18.68;37.59;102521.32;;;;-54
2020/01/22 02:21:23;;;;;;;5.69;5.19;;;;;;;18.67;37.62;102516.86;;;;-54
2020/01/22 02:24:22;;;;;;;5.72;5.13;;;;;;;18.66;37.63;102505.07;;;;-54
2020/01/22 02:27:23;;;;;;;5.34;4.84;;;;;;;18.64;37.66;102503.76;;;;-54
2020/01/22 02:30:23;;;;;;;5.49;4.99;;;;;;;18.63;37.64;102500.25;;;;-54
2020/01/22 02:33:23;;;;;;;5.38;4.89;;;;;;;18.62;37.67;102496.91;;;;-54
2020/01/22 02:36:23;;;;;;;5.32;4.82;;;;;;;18.61;37.66;102496.66;;;;-54
2020/01/22 02:39:23;;;;;;;5.48;4.98;;;;;;;18.61;37.64;102497.33;;;;-54
2020/01/22 02:45:29;;;;;;;5.63;5.13;;;;;;;18.59;37.70;102492.84;;;;-54
2020/01/22 02:48:23;;;;;;;5.51;5.01;;;;;;;18.58;37.69;102489.14;;;;-54
2020/01/22 02:51:23;;;;;;;5.56;5.06;;;;;;;18.58;37.69;102490.48;;;;-54
2020/01/22 02:54:23;;;;;;;5.47;4.97;;;;;;;18.56;37.62;102481.89;;;;-54
2020/01/22 02:57:23;;;;;;;5.50;5.00;;;;;;;18.55;37.66;102484.91;;;;-54
2020/01/22 03:00:23;;;;;;;5.53;5.03;;;;;;;18.55;37.65;102485.94;;;;-54
2020/01/22 03:03:23;;;;;;;5.65;5.15;;;;;;;18.54;37.62;102483.58;;;;-54
2020/01/22 03:06:22;;;;;;;5.60;5.10;;;;;;;18.53;37.68;102481.43;;;;-54
2020/01/22 03:09:22;;;;;;;5.33;4.83;;;;;;;18.52;37.62;102481.30;;;;-54
2020/01/22 03:12:23;;;;;;;5.33;4.87;;;;;;;18.52;37.71;102474.47;;;;-54
2020/01/22 03:15:23;;;;;;;5.23;4.73;;;;;;;18.50;37.58;102468.36;;;;-54
2020/01/22 03:18:23;;;;;;;5.74;5.24;;;;;;;18.50;37.70;102472.04;;;;-54
2020/01/22 03:21:23;;;;;;;5.31;4.83;;;;;;;18.49;37.55;102473.97;;;;-54
2020/01/22 03:24:23;;;;;;;5.44;4.94;;;;;;;18.48;37.57;102480.17;;;;-54
2020/01/22 03:27:22;;;;;;;5.63;5.11;;;;;;;18.45;37.59;102484.58;;;;-54
2020/01/22 03:30:25;;;;;;;5.43;4.93;;;;;;;18.45;37.52;102488.48;;;;-54
2020/01/22 03:33:23;;;;;;;5.62;5.12;;;;;;;18.45;37.63;102496.27;;;;-54
2020/01/22 03:36:23;;;;;;;5.64;5.14;;;;;;;18.43;37.68;102492.78;;;;-54
2020/01/22 03:39:23;;;;;;;5.81;5.28;;;;;;;18.43;37.62;102491.30;;;;-54
2020/01/22 03:42:23;;;;;;;5.51;5.01;;;;;;;18.42;37.58;102495.43;;;;-54
2020/01/22 03:45:23;;;;;;;5.92;5.42;;;;;;;18.41;37.60;102495.46;;;;-54
2020/01/22 03:48:23;;;;;;;6.11;5.51;;;;;;;18.40;37.59;102496.89;;;;-54
2020/01/22 03:51:23;;;;;;;5.39;4.96;;;;;;;18.40;37.67;102494.52;;;;-53
2020/01/22 03:54:23;;;;;;;5.45;4.95;;;;;;;18.39;37.70;102494.55;;;;-54
2020/01/22 03:57:23;;;;;;;5.60;5.10;;;;;;;18.38;37.55;102495.03;;;;-54
2020/01/22 04:00:23;;;;;;;5.35;4.89;;;;;;;18.38;37.58;102486.11;;;;-54
2020/01/22 04:03:23;;;;;;;5.69;5.19;;;;;;;18.38;37.66;102486.50;;;;-54
2020/01/22 04:06:23;;;;;;;5.60;5.10;;;;;;;18.38;37.70;102484.52;;;;-54
2020/01/22 04:09:23;;;;;;;5.58;5.04;;;;;;;18.39;37.77;102483.84;;;;-54
2020/01/22 04:12:28;;;;;;;5.31;4.81;;;;;;;18.41;37.79;102487.58;;;;-54
2020/01/22 04:15:23;;;;;;;5.07;4.60;;;;;;;18.41;37.66;102483.25;;;;-54
2020/01/22 04:18:23;;;;;;;5.09;4.66;;;;;;;18.44;37.68;102477.84;;;;-54
2020/01/22 04:21:23;;;;;;;4.83;4.43;;;;;;;18.47;37.73;102476.42;;;;-54
2020/01/22 04:24:23;;;;;;;4.92;4.50;;;;;;;18.50;37.69;102475.44;;;;-54
2020/01/22 04:27:23;;;;;;;4.96;4.53;;;;;;;18.54;37.87;102478.81;;;;-54
2020/01/22 04:30:23;;;;;;;4.65;4.25;;;;;;;18.58;37.72;102479.68;;;;-54
2020/01/22 04:33:23;;;;;;;4.75;4.35;;;;;;;18.60;37.92;102480.17;;;;-54
2020/01/22 04:36:23;;;;;;;4.64;4.23;;;;;;;18.65;37.91;102482.47;;;;-54
2020/01/22 04:39:23;;;;;;;4.64;4.24;;;;;;;18.69;37.88;102479.70;;;;-54
2020/01/22 04:42:23;;;;;;;4.41;4.01;;;;;;;18.72;37.95;102481.97;;;;-54
2020/01/22 04:45:23;;;;;;;4.58;4.17;;;;;;;18.77;37.86;102481.75;;;;-54
2020/01/22 04:48:23;;;;;;;5.26;4.28;;;;;;;18.82;37.56;102482.20;;;;-54
2020/01/22 04:51:22;;;;;;;5.02;4.55;;;;;;;18.84;37.74;102488.12;;;;-54
2020/01/22 04:54:23;;;;;;;4.57;4.13;;;;;;;18.87;37.76;102494.05;;;;-54
2020/01/22 04:57:22;;;;;;;4.59;4.03;;;;;;;18.93;37.86;102495.86;;;;-54
2020/01/22 05:00:23;;;;;;;4.57;4.17;;;;;;;18.96;37.92;102492.05;;;;-55
2020/01/22 05:03:23;;;;;;;4.66;3.98;;;;;;;19.00;37.82;102494.09;;;;-54
2020/01/22 05:06:23;;;;;;;4.50;4.10;;;;;;;19.03;37.79;102497.12;;;;-54
2020/01/22 05:09:22;;;;;;;4.38;3.98;;;;;;;19.07;37.85;102496.31;;;;-54
2020/01/22 05:12:22;;;;;;;4.88;4.05;;;;;;;19.11;37.80;102497.69;;;;-54
2020/01/22 05:15:23;;;;;;;4.40;3.96;;;;;;;19.12;37.90;102498.27;;;;-55
2020/01/22 05:18:23;;;;;;;4.29;3.89;;;;;;;19.14;37.93;102498.23;;;;-54
2020/01/22 05:21:23;;;;;;;4.55;4.15;;;;;;;19.18;37.76;102501.52;;;;-54
2020/01/22 05:24:23;;;;;;;4.13;3.77;;;;;;;19.20;37.81;102503.25;;;;-54
2020/01/22 05:27:23;;;;;;;4.51;4.11;;;;;;;19.22;37.80;102512.27;;;;-55
2020/01/22 05:30:23;;;;;;;4.54;4.14;;;;;;;19.24;37.83;102509.99;;;;-54
2020/01/22 05:33:22;;;;;;;4.55;4.15;;;;;;;19.27;37.68;102505.67;;;;-54
2020/01/22 05:36:22;;;;;;;4.95;4.13;;;;;;;19.28;37.69;102499.30;;;;-51
2020/01/22 05:39:22;;;;;;;4.13;3.77;;;;;;;19.29;37.80;102484.89;;;;-51
2020/01/22 05:42:23;;;;;;;4.35;3.71;;;;;;;19.30;37.67;102472.20;;;;-50
2020/01/22 05:45:25;;;;;;;4.55;4.15;;;;;;;19.31;37.72;102470.77;;;;-50
2020/01/22 05:53:22;;;;;;;4.39;3.99;;;;;;;19.35;37.69;102476.55;;;;-50
2020/01/22 05:56:22;;;;;;;4.25;3.87;;;;;;;19.35;37.69;102476.98;;;;-51
2020/01/22 05:59:23;;;;;;;4.29;3.90;;;;;;;19.36;37.70;102475.91;;;;-50
2020/01/22 06:02:32;;;;;;;4.17;3.77;;;;;;;19.37;37.63;102474.75;;;;-50
2020/01/22 06:05:23;;;;;;;4.25;3.87;;;;;;;19.38;37.75;102472.03;;;;-51
2020/01/22 06:08:23;;;;;;;4.19;3.79;;;;;;;19.38;37.58;102473.16;;;;-51
2020/01/22 06:11:23;;;;;;;4.59;4.19;;;;;;;19.40;37.62;102482.02;;;;-51
2020/01/22 06:14:23;;;;;;;4.17;3.78;;;;;;;19.40;37.45;102478.34;;;;-51
2020/01/22 06:17:22;;;;;;;4.39;3.99;;;;;;;19.40;37.71;102478.78;;;;-51
2020/01/22 06:20:23;;;;;;;4.23;3.83;;;;;;;19.41;37.49;102493.21;;;;-51
2020/01/22 06:23:23;;;;;;;4.25;3.84;;;;;;;19.42;37.55;102494.24;;;;-51
2020/01/22 06:26:23;;;;;;;4.35;3.95;;;;;;;19.43;37.54;102490.91;;;;-51
2020/01/22 06:29:23;;;;;;;4.07;3.67;;;;;;;19.44;37.55;102483.34;;;;-51
2020/01/22 06:32:24;;;;;;;4.41;4.01;;;;;;;19.43;37.51;102468.84;;;;-51
2020/01/22 06:35:22;;;;;;;4.03;3.73;;;;;;;19.44;37.49;102467.05;;;;-50
2020/01/22 06:38:23;;;;;;;4.24;3.84;;;;;;;19.45;37.49;102460.42;;;;-51
2020/01/22 06:41:23;;;;;;;4.43;4.03;;;;;;;19.45;37.50;102455.05;;;;-51
2020/01/22 06:44:23;;;;;;;4.10;3.74;;;;;;;19.46;37.45;102448.74;;;;-51
2020/01/22 06:47:23;;;;;;;4.45;3.98;;;;;;;19.47;37.67;102443.48;;;;-50
2020/01/22 06:50:23;;;;;;;5.91;4.55;;;;;;;19.49;37.59;102451.54;;;;-51
2020/01/22 06:53:23;;;;;;;6.33;4.92;;;;;;;19.50;37.50;102461.97;;;;-46
2020/01/22 06:56:22;;;;;;;4.74;4.34;;;;;;;19.54;38.04;102487.30;;;;-54
2020/01/22 06:59:22;;;;;;;5.72;4.81;;;;;;;19.54;37.58;102503.73;;;;-50
2020/01/22 07:02:23;;;;;;;5.78;4.61;;;;;;;19.56;37.65;102521.91;;;;-49
2020/01/22 07:05:23;;;;;;;5.25;4.75;;;;;;;19.58;38.03;102536.22;;;;-51
2020/01/22 07:08:23;;;;;;;4.82;4.41;;;;;;;19.59;37.60;102542.59;;;;-49
2020/01/22 07:11:23;;;;;;;5.01;4.51;;;;;;;19.60;37.64;102539.03;;;;-49
2020/01/22 07:14:23;;;;;;;5.13;4.63;;;;;;;19.60;37.65;102537.66;;;;-49
2020/01/22 07:17:23;;;;;;;5.23;4.73;;;;;;;19.61;37.62;102546.62;;;;-49
2020/01/22 07:20:23;;;;;;;6.33;4.49;;;;;;;19.63;37.65;102550.00;;;;-54
2020/01/22 07:23:23;;;;;;;5.75;4.59;;;;;;;19.65;37.85;102550.28;;;;-51
2020/01/22 07:26:23;;;;;;;6.84;4.67;;;;;;;19.68;38.21;102540.34;;;;-51
2020/01/22 07:29:23;;;;;;;4.91;4.43;;;;;;;19.69;38.08;102536.06;;;;-45
2020/01/22 07:32:23;;;;;;;5.78;4.49;;;;;;;19.70;38.15;102545.19;;;;-52
2020/01/22 07:35:22;;;;;;;5.69;4.47;;;;;;;19.71;38.11;102541.92;;;;-46
2020/01/22 07:38:22;;;;;;;4.75;4.25;;;;;;;19.72;38.19;102536.19;;;;-48
2020/01/22 07:41:22;;;;;;;5.15;4.24;;;;;;;19.74;38.10;102539.24;;;;-43
2020/01/22 07:44:23;;;;;;;4.52;4.06;;;;;;;19.74;38.13;102530.35;;;;-44
2020/01/22 07:47:23;;;;;;;4.49;4.09;;;;;;;19.74;38.16;102522.05;;;;-44
2020/01/22 07:50:23;;;;;;;4.88;4.43;;;;;;;19.74;37.29;102519.34;;;;-44
2020/01/22 07:53:22;;;;;;;5.73;5.15;;;;;;;19.72;36.75;102517.52;;;;-48
2020/01/22 07:59:23;;;;;;;5.59;4.89;;;;;;;19.74;36.98;102519.30;;;;-48
2020/01/22 08:02:22;;;;;;;7.13;4.99;;;;;;;19.76;37.40;102517.73;;;;-46
2020/01/22 08:05:25;;;;;;;5.67;4.47;;;;;;;19.80;37.58;102520.02;;;;-48
2020/01/22 08:08:23;;;;;;;6.83;4.66;;;;;;;19.80;37.32;102520.98;;;;-48
2020/01/22 08:11:23;;;;;;;4.68;4.27;;;;;;;19.79;37.28;102516.23;;;;-48
2020/01/22 08:14:22;;;;;;;5.29;4.69;;;;;;;19.79;37.26;102520.41;;;;-48
2020/01/22 08:17:22;;;;;;;5.11;4.61;;;;;;;19.78;37.27;102514.36;;;;-48
2020/01/22 08:20:22;;;;;;;4.99;4.51;;;;;;;19.79;37.26;102505.30;;;;-48
2020/01/22 08:23:23;;;;;;;5.03;4.31;;;;;;;19.78;37.30;102501.56;;;;-48
2020/01/22 08:26:23;;;;;;;4.72;4.32;;;;;;;19.78;37.33;102501.95;;;;-48
2020/01/22 08:29:23;;;;;;;4.72;4.25;;;;;;;19.78;37.29;102510.17;;;;-48
2020/01/22 08:32:23;;;;;;;5.13;4.44;;;;;;;19.79;37.27;102501.34;;;;-47
2020/01/22 08:35:22;;;;;;;4.76;4.29;;;;;;;19.78;37.25;102492.71;;;;-48
2020/01/22 08:38:22;;;;;;;5.34;4.10;;;;;;;19.78;37.14;102496.52;;;;-47
2020/01/22 08:41:22;;;;;;;4.56;4.16;;;;;;;19.77;37.22;102500.34;;;;-48
2020/01/22 08:44:22;;;;;;;4.66;4.25;;;;;;;19.76;37.29;102499.29;;;;-48
2020/01/22 08:47:23;;;;;;;4.78;4.35;;;;;;;19.76;37.23;102502.12;;;;-47
2020/01/22 08:50:23;;;;;;;4.53;4.13;;;;;;;19.75;37.22;102510.65;;;;-48
2020/01/22 08:53:23;;;;;;;4.69;4.23;;;;;;;19.75;37.23;102516.02;;;;-48
2020/01/22 08:56:22;;;;;;;6.70;4.29;;;;;;;19.75;37.22;102512.88;;;;-43
2020/01/22 08:59:22;;;;;;;6.40;4.19;;;;;;;19.77;37.15;102509.02;;;;-47
2020/01/22 09:02:22;;;;;;;6.16;4.46;;;;;;;19.78;37.17;102509.76;;;;-48
2020/01/22 09:05:22;;;;;;;5.27;4.67;;;;;;;19.77;37.02;102505.34;;;;-49
2020/01/22 09:08:22;;;;;;;5.81;4.39;;;;;;;19.78;37.30;102504.75;;;;-49
2020/01/22 09:11:23;;;;;;;4.60;4.19;;;;;;;19.79;37.41;102504.70;;;;-50
2020/01/22 09:14:23;;;;;;;4.99;4.25;;;;;;;19.80;37.56;102503.53;;;;-49
2020/01/22 09:17:22;;;;;;;5.12;4.36;;;;;;;19.80;37.62;102503.38;;;;-50
2020/01/22 09:20:22;;;;;;;5.21;4.36;;;;;;;19.81;37.67;102512.41;;;;-50
2020/01/22 09:23:22;;;;;;;4.89;4.39;;;;;;;19.83;37.71;102517.69;;;;-51
2020/01/22 09:26:22;;;;;;;5.55;4.33;;;;;;;19.83;37.75;102514.52;;;;-50
2020/01/22 09:29:22;;;;;;;4.70;4.21;;;;;;;19.85;37.83;102510.25;;;;-50
2020/01/22 09:32:23;;;;;;;4.81;4.05;;;;;;;19.86;37.81;102497.47;;;;-52
2020/01/22 09:35:23;;;;;;;8.83;4.67;;;;;;;19.88;37.45;102489.30;;;;-50
2020/01/22 09:38:22;;;;;;;4.65;4.17;;;;;;;19.89;37.66;102493.78;;;;-49
2020/01/22 09:41:22;;;;;;;4.91;4.31;;;;;;;19.90;37.75;102498.48;;;;-52
2020/01/22 09:44:23;;;;;;;5.47;4.41;;;;;;;19.92;37.78;102497.42;;;;-51
2020/01/22 09:47:22;;;;;;;5.11;4.19;;;;;;;19.92;37.78;102493.01;;;;-50
2020/01/22 09:50:23;;;;;;;5.50;4.32;;;;;;;19.93;37.81;102483.58;;;;-49
2020/01/22 09:53:23;;;;;;;5.00;4.39;;;;;;;19.94;37.75;102482.81;;;;-50
2020/01/22 09:56:25;;;;;;;7.11;4.55;;;;;;;19.94;37.72;102478.12;;;;-50
2020/01/22 09:59:22;;;;;;;4.59;4.19;;;;;;;19.94;37.81;102480.41;;;;-51
2020/01/22 10:02:22;;;;;;;4.97;4.47;;;;;;;19.95;37.75;102491.39;;;;-50
2020/01/22 10:05:23;;;;;;;4.77;4.33;;;;;;;19.95;37.91;102495.63;;;;-50
2020/01/22 10:08:22;;;;;;;5.95;4.27;;;;;;;19.97;37.91;102501.98;;;;-50
2020/01/22 10:11:23;;;;;;;4.91;4.35;;;;;;;19.98;38.03;102511.37;;;;-48
2020/01/22 10:14:23;;;;;;;4.71;4.25;;;;;;;19.99;38.25;102509.35;;;;-47
2020/01/22 10:17:23;;;;;;;5.81;4.17;;;;;;;20.01;38.12;102513.28;;;;-51
2020/01/22 10:20:22;;;;;;;4.97;4.47;;;;;;;20.00;37.92;102508.42;;;;-52
2020/01/22 10:23:22;;;;;;;4.80;4.26;;;;;;;20.01;38.01;102502.33;;;;-50
2020/01/22 10:26:23;;;;;;;4.43;4.03;;;;;;;20.03;38.09;102498.90;;;;-51
2020/01/22 10:29:23;;;;;;;4.93;4.23;;;;;;;20.03;38.02;102499.56;;;;-52
2020/01/22 10:32:22;;;;;;;4.89;4.33;;;;;;;20.03;38.15;102500.73;;;;-49
2020/01/22 10:35:23;;;;;;;4.66;3.93;;;;;;;20.05;38.11;102503.30;;;;-55
2020/01/22 10:38:22;;;;;;;4.99;4.35;;;;;;;20.04;37.96;102507.13;;;;-55
2020/01/22 10:41:22;;;;;;;4.82;4.31;;;;;;;20.06;37.95;102513.77;;;;-54
2020/01/22 10:44:22;;;;;;;5.17;4.12;;;;;;;20.06;37.82;102514.89;;;;-54
2020/01/22 10:47:22;;;;;;;4.49;4.03;;;;;;;20.04;37.76;102512.16;;;;-54
2020/01/22 10:50:23;;;;;;;4.61;4.15;;;;;;;20.03;37.67;102514.05;;;;-54
2020/01/22 10:53:23;;;;;;;4.43;4.03;;;;;;;20.02;37.65;102510.92;;;;-54
2020/01/22 10:56:23;;;;;;;4.54;4.13;;;;;;;20.02;37.49;102511.80;;;;-51
2020/01/22 10:59:22;;;;;;;4.49;4.09;;;;;;;20.01;37.61;102510.00;;;;-50
2020/01/22 11:02:22;;;;;;;4.41;4.01;;;;;;;20.01;37.50;102513.90;;;;-50
2020/01/22 11:05:22;;;;;;;4.41;4.01;;;;;;;20.00;37.49;102512.26;;;;-54
2020/01/22 11:08:22;;;;;;;4.50;4.10;;;;;;;19.99;37.55;102507.77;;;;-53
2020/01/22 11:11:22;;;;;;;4.56;4.16;;;;;;;19.99;37.42;102508.49;;;;-54
2020/01/22 11:14:23;;;;;;;4.51;4.11;;;;;;;19.98;37.39;102504.67;;;;-53
2020/01/22 11:17:23;;;;;;;4.62;4.22;;;;;;;19.98;37.40;102511.49;;;;-54
2020/01/22 11:20:22;;;;;;;4.50;4.10;;;;;;;19.97;37.41;102511.10;;;;-54
2020/01/22 11:23:22;;;;;;;4.66;4.19;;;;;;;19.96;37.46;102512.14;;;;-54
2020/01/22 11:26:22;;;;;;;4.85;4.34;;;;;;;19.96;37.48;102503.59;;;;-54
2020/01/22 11:29:22;;;;;;;4.40;4.00;;;;;;;19.96;37.28;102503.20;;;;-54
2020/01/22 11:32:23;;;;;;;4.35;3.95;;;;;;;19.97;37.33;102507.19;;;;-54
2020/01/22 11:35:23;;;;;;;5.25;4.14;;;;;;;19.95;37.41;102506.70;;;;-54
2020/01/22 11:38:23;;;;;;;4.56;4.16;;;;;;;19.95;37.38;102504.36;;;;-54
2020/01/22 11:41:27;;;;;;;4.93;4.01;;;;;;;19.95;37.32;102505.53;;;;-54
2020/01/22 11:44:22;;;;;;;4.49;4.09;;;;;;;19.93;37.35;102499.00;;;;-54
2020/01/22 11:51:34;;;;;;;4.61;4.21;;;;;;;19.93;37.34;102493.30;;;;-54
2020/01/22 11:54:23;;;;;;;4.60;4.20;;;;;;;19.93;37.25;102489.67;;;;-54
2020/01/22 11:57:23;;;;;;;4.61;4.05;;;;;;;19.93;37.18;102481.56;;;;-53
2020/01/22 12:00:22;;;;;;;4.39;3.99;;;;;;;19.92;37.29;102481.44;;;;-54
2020/01/22 12:03:22;;;;;;;4.58;4.18;;;;;;;19.92;37.21;102485.85;;;;-54
2020/01/22 12:06:22;;;;;;;4.49;4.09;;;;;;;19.91;37.29;102487.28;;;;-54
2020/01/22 12:09:23;;;;;;;4.56;4.16;;;;;;;19.90;37.21;102482.52;;;;-53
2020/01/22 12:12:22;;;;;;;4.53;4.13;;;;;;;19.89;37.25;102477.63;;;;-54
2020/01/22 12:15:22;;;;;;;4.55;4.11;;;;;;;19.89;37.21;102480.63;;;;-54
2020/01/22 12:18:23;;;;;;;4.76;4.27;;;;;;;19.88;37.13;102481.13;;;;-54
2020/01/22 12:21:22;;;;;;;4.61;4.14;;;;;;;19.87;37.23;102475.97;;;;-54
2020/01/22 12:24:22;;;;;;;4.55;4.11;;;;;;;19.86;37.16;102475.62;;;;-54
2020/01/22 12:27:22;;;;;;;4.45;4.05;;;;;;;19.86;37.17;102470.53;;;;-54
2020/01/22 12:30:23;;;;;;;4.41;4.01;;;;;;;19.84;37.15;102464.80;;;;-54
2020/01/22 12:33:22;;;;;;;4.49;4.09;;;;;;;19.84;37.13;102461.77;;;;-55
2020/01/22 12:36:22;;;;;;;4.55;4.15;;;;;;;19.84;37.17;102463.39;;;;-53
2020/01/22 12:39:23;;;;;;;4.56;4.16;;;;;;;19.84;37.14;102460.16;;;;-54
2020/01/22 12:42:22;;;;;;;4.47;4.07;;;;;;;19.84;37.15;102451.58;;;;-54
2020/01/22 12:45:22;;;;;;;4.55;4.15;;;;;;;19.83;37.27;102449.77;;;;-54
2020/01/22 12:48:22;;;;;;;4.27;3.89;;;;;;;19.83;37.11;102444.30;;;;-53
2020/01/22 12:51:22;;;;;;;4.34;3.89;;;;;;;19.83;37.09;102441.13;;;;-54
2020/01/22 12:54:22;;;;;;;4.33;3.93;;;;;;;19.83;37.08;102440.91;;;;-54
2020/01/22 12:57:22;;;;;;;4.63;4.23;;;;;;;19.83;37.20;102438.72;;;;-54
2020/01/22 13:00:22;;;;;;;4.93;4.12;;;;;;;19.84;36.99;102436.62;;;;-53
2020/01/22 13:03:22;;;;;;;4.91;4.19;;;;;;;19.85;37.09;102433.63;;;;-54
2020/01/22 13:06:22;;;;;;;4.75;4.23;;;;;;;19.85;37.20;102434.52;;;;-54
2020/01/22 13:09:22;;;;;;;4.52;4.11;;;;;;;19.86;37.22;102437.61;;;;-54
2020/01/22 13:13:22;;;;;;;4.45;4.05;;;;;;;19.87;37.14;102437.80;;;;-54
2020/01/22 13:16:23;;;;;;;4.51;4.11;;;;;;;19.88;37.03;102439.88;;;;-54
2020/01/22 13:19:22;;;;;;;4.26;3.88;;;;;;;19.88;37.10;102435.58;;;;-54
2020/01/22 13:22:22;;;;;;;6.71;4.15;;;;;;;19.89;37.12;102430.15;;;;-50
2020/01/22 13:25:22;;;;;;;6.07;5.47;;;;;;;19.84;35.66;102423.23;;;;-52
2020/01/22 13:30:22;;;;;;;8.58;5.63;;;;;;;19.82;35.13;102422.53;;;;-56
2020/01/22 13:33:22;;;;;;;7.21;5.37;;;;;;;19.83;35.51;102415.08;;;;-47
2020/01/22 13:36:22;;;;;;;6.63;5.22;;;;;;;19.86;35.91;102414.02;;;;-46
2020/01/22 13:39:23;;;;;;;5.94;4.88;;;;;;;19.90;36.39;102421.00;;;;-46
2020/01/22 13:42:23;;;;;;;5.37;4.82;;;;;;;19.92;36.54;102420.50;;;;-50
2020/01/22 13:45:22;;;;;;;5.73;4.72;;;;;;;19.95;36.75;102413.00;;;;-53
2020/01/22 13:48:22;;;;;;;4.85;4.35;;;;;;;19.97;37.03;102412.09;;;;-48
2020/01/22 13:51:22;;;;;;;5.83;4.80;;;;;;;19.98;37.00;102410.41;;;;-48
2020/01/22 13:54:51;;;;;;;5.19;4.69;;;;;;;20.00;37.09;102394.57;;;;-49
2020/01/22 13:57:32;;;;;;;5.19;4.69;;;;;;;20.00;37.05;102384.73;;;;-46
2020/01/22 14:00:23;;;;;;;5.05;4.55;;;;;;;20.02;37.11;102379.23;;;;-45
2020/01/22 14:03:22;;;;;;;5.90;4.70;;;;;;;20.03;37.14;102372.87;;;;-48
2020/01/22 14:06:22;;;;;;;5.00;4.52;;;;;;;20.04;37.18;102367.02;;;;-45
2020/01/22 14:09:22;;;;;;;5.02;4.44;;;;;;;20.04;37.26;102360.30;;;;-47
2020/01/22 14:12:22;;;;;;;5.06;4.56;;;;;;;20.04;37.33;102372.34;;;;-46
2020/01/22 14:15:22;;;;;;;6.18;4.77;;;;;;;20.04;37.37;102374.78;;;;-46
2020/01/22 14:18:22;;;;;;;5.11;4.63;;;;;;;20.04;37.37;102381.50;;;;-47
2020/01/22 14:21:22;;;;;;;5.02;4.50;;;;;;;20.04;37.50;102377.88;;;;-45
2020/01/22 14:24:22;;;;;;;5.11;4.39;;;;;;;20.04;37.39;102384.42;;;;-44
2020/01/22 14:27:22;;;;;;;4.87;4.37;;;;;;;20.04;37.37;102381.66;;;;-52
2020/01/22 14:30:22;;;;;;;4.95;4.49;;;;;;;20.05;37.19;102384.08;;;;-47
2020/01/22 14:33:22;;;;;;;4.82;4.33;;;;;;;20.04;37.11;102379.27;;;;-46
2020/01/22 14:36:22;;;;;;;4.92;4.47;;;;;;;20.03;37.14;102382.87;;;;-47
2020/01/22 14:39:22;;;;;;;5.11;4.17;;;;;;;20.01;37.13;102385.55;;;;-47
2020/01/22 14:42:22;;;;;;;5.03;4.53;;;;;;;20.00;37.13;102381.11;;;;-46
2020/01/22 14:45:22;;;;;;;4.63;4.23;;;;;;;19.99;37.12;102384.04;;;;-47
2020/01/22 14:48:22;;;;;;;4.66;4.26;;;;;;;19.99;37.11;102391.64;;;;-47
2020/01/22 14:51:22;;;;;;;5.09;4.59;;;;;;;19.97;37.08;102387.60;;;;-48
2020/01/22 14:54:22;;;;;;;4.61;4.21;;;;;;;19.97;37.04;102378.66;;;;-46
2020/01/22 14:57:23;;;;;;;4.70;4.30;;;;;;;19.96;37.07;102376.74;;;;-46
2020/01/22 15:00:22;;;;;;;4.60;4.19;;;;;;;19.95;36.99;102374.20;;;;-47
2020/01/22 15:03:22;;;;;;;4.73;4.33;;;;;;;19.95;37.09;102379.08;;;;-46
2020/01/22 15:06:22;;;;;;;4.44;4.04;;;;;;;19.94;36.97;102377.04;;;;-47
2020/01/22 15:09:23;;;;;;;6.23;4.19;;;;;;;19.95;37.14;102373.14;;;;-42
2020/01/22 15:12:22;;;;;;;4.88;4.38;;;;;;;19.95;37.38;102379.23;;;;-42
2020/01/22 15:15:22;;;;;;;4.93;4.48;;;;;;;19.96;37.11;102372.22;;;;-45
2020/01/22 15:18:22;;;;;;;4.69;4.25;;;;;;;19.95;37.19;102371.02;;;;-45
2020/01/22 15:21:22;;;;;;;5.19;4.60;;;;;;;19.96;37.11;102372.27;;;;-46
2020/01/22 15:24:22;;;;;;;4.59;4.19;;;;;;;19.95;37.10;102370.86;;;;-46
2020/01/22 15:27:22;;;;;;;4.83;4.33;;;;;;;19.96;37.14;102372.94;;;;-46
2020/01/22 15:30:24;;;;;;;4.90;4.37;;;;;;;19.95;37.10;102365.94;;;;-46
2020/01/22 15:33:22;;;;;;;4.59;4.19;;;;;;;19.95;37.12;102367.61;;;;-46
2020/01/22 15:36:22;;;;;;;4.47;4.07;;;;;;;19.95;37.05;102362.08;;;;-47
2020/01/22 15:39:22;;;;;;;4.71;4.25;;;;;;;19.94;37.15;102360.94;;;;-46
2020/01/22 15:42:22;;;;;;;4.66;4.23;;;;;;;19.95;37.04;102363.53;;;;-46
2020/01/22 15:45:22;;;;;;;4.93;4.51;;;;;;;19.96;36.91;102364.27;;;;-46
2020/01/22 15:48:22;;;;;;;4.55;4.15;;;;;;;19.95;37.02;102366.33;;;;-46
2020/01/22 15:51:22;;;;;;;4.33;3.93;;;;;;;19.95;37.00;102366.94;;;;-46
2020/01/22 15:54:22;;;;;;;4.80;4.30;;;;;;;19.95;36.97;102373.76;;;;-46
2020/01/22 15:57:22;;;;;;;4.59;4.19;;;;;;;19.95;36.85;102368.34;;;;-46
2020/01/22 16:00:22;;;;;;;4.31;3.89;;;;;;;19.96;37.05;102369.36;;;;-46
2020/01/22 16:03:22;;;;;;;4.74;4.34;;;;;;;19.95;37.11;102370.41;;;;-46
2020/01/22 16:06:23;;;;;;;6.12;4.32;;;;;;;19.96;37.19;102373.83;;;;-46
2020/01/22 16:09:22;;;;;;;4.99;4.22;;;;;;;19.97;37.41;102378.21;;;;-46
2020/01/22 16:12:22;;;;;;;5.66;4.26;;;;;;;19.98;37.39;102377.48;;;;-45
2020/01/22 16:15:22;;;;;;;4.75;4.04;;;;;;;20.00;37.38;102381.03;;;;-46
2020/01/22 16:18:22;;;;;;;4.83;4.32;;;;;;;20.02;37.50;102380.84;;;;-47
2020/01/22 16:21:22;;;;;;;6.51;4.51;;;;;;;20.03;37.23;102384.02;;;;-46
2020/01/22 16:24:22;;;;;;;5.27;4.26;;;;;;;20.03;37.27;102380.30;;;;-48
2020/01/22 16:27:22;;;;;;;4.77;4.33;;;;;;;20.02;37.09;102378.55;;;;-46
2020/01/22 16:30:22;;;;;;;5.57;4.16;;;;;;;20.02;37.07;102377.66;;;;-47
2020/01/22 16:33:22;;;;;;;4.67;4.19;;;;;;;20.01;37.20;102386.20;;;;-45
2020/01/22 16:36:22;;;;;;;4.61;4.15;;;;;;;20.01;37.09;102384.75;;;;-46
2020/01/22 16:39:22;;;;;;;4.63;4.23;;;;;;;20.01;37.11;102385.53;;;;-46
2020/01/22 16:42:22;;;;;;;5.00;4.51;;;;;;;20.00;36.93;102396.37;;;;-46
2020/01/22 16:45:24;;;;;;;4.70;4.05;;;;;;;19.99;37.10;102398.31;;;;-46
2020/01/22 16:48:22;;;;;;;4.72;4.32;;;;;;;20.00;36.99;102399.27;;;;-46
2020/01/22 16:51:22;;;;;;;5.39;4.24;;;;;;;20.00;37.05;102404.41;;;;-46
2020/01/22 16:54:22;;;;;;;4.71;4.31;;;;;;;19.99;36.92;102399.47;;;;-46
2020/01/22 16:57:22;;;;;;;4.66;4.26;;;;;;;19.98;37.08;102397.33;;;;-46
2020/01/22 17:00:22;;;;;;;5.09;4.51;;;;;;;19.98;36.84;102395.23;;;;-46
2020/01/22 17:03:22;;;;;;;4.62;4.22;;;;;;;19.97;36.95;102395.27;;;;-46
2020/01/22 17:06:22;;;;;;;4.69;4.29;;;;;;;19.97;36.98;102403.26;;;;-46